Time;durP1;ratioP1;P1;durP2;ratioP2;P2;SDS_P1;SDS_P2;PMS_P1;PMS_P2;Temp;Humidity;BMP_temperature;BMP_pressure;BME280_temperature;BME280_humidity;BME280_pressure;Samples;Min_cycle;Max_cycle;Signal;HPM_P1;HPM_P2
2022/01/10 00:00:49;;;;;;;16.77;5.10;;;3.20;97.40;;;;;;5065305;28;20360;-71
2022/01/10 00:03:15;;;;;;;25.40;5.07;;;3.10;97.40;;;;;;5069751;28;20032;-71
2022/01/10 00:05:41;;;;;;;25.88;5.00;;;3.10;97.40;;;;;;5058794;28;20472;-71
2022/01/10 00:08:07;;;;;;;26.48;5.50;;;3.10;97.40;;;;;;5064674;28;20024;-71
2022/01/10 00:10:34;;;;;;;15.10;5.15;;;3.10;97.40;;;;;;5067831;28;20111;-70
2022/01/10 00:12:59;;;;;;;18.05;5.00;;;3.10;97.50;;;;;;5067775;28;20027;-71
2022/01/10 00:15:25;;;;;;;15.30;4.57;;;3.10;97.50;;;;;;5068212;28;20036;-71
2022/01/10 00:17:50;;;;;;;15.65;4.95;;;3.20;97.50;;;;;;5061701;28;20029;-71
2022/01/10 00:20:18;;;;;;;17.42;4.82;;;3.10;97.50;;;;;;5066875;28;20028;-72
2022/01/10 00:22:46;;;;;;;16.63;4.78;;;3.20;97.50;;;;;;5056524;28;20060;-72
2022/01/10 00:25:13;;;;;;;15.75;5.28;;;3.20;97.50;;;;;;5067195;28;20529;-73
2022/01/10 00:27:38;;;;;;;24.85;5.03;;;3.10;97.50;;;;;;5068749;28;20029;-72
2022/01/10 00:30:04;;;;;;;18.60;4.82;;;3.20;97.60;;;;;;5059711;28;20083;-73
2022/01/10 00:32:30;;;;;;;19.65;5.20;;;3.10;97.60;;;;;;5062594;28;20059;-71
2022/01/10 00:34:55;;;;;;;23.90;5.00;;;3.20;97.60;;;;;;5064042;28;20072;-71
2022/01/10 00:37:21;;;;;;;17.92;5.38;;;3.20;97.60;;;;;;5064272;28;20349;-71
2022/01/10 00:39:48;;;;;;;17.70;4.80;;;3.20;97.60;;;;;;5068675;28;20431;-70
2022/01/10 00:42:14;;;;;;;10.23;4.80;;;3.20;97.60;;;;;;5063395;28;20506;-71
2022/01/10 00:44:46;;;;;;;12.18;4.90;;;3.20;97.60;;;;;;5058599;28;20470;-71
2022/01/10 00:47:11;;;;;;;19.50;4.90;;;3.20;97.60;;;;;;5060766;28;20025;-71
2022/01/10 00:49:37;;;;;;;18.35;5.15;;;3.20;97.60;;;;;;5061507;28;20029;-71
2022/01/10 00:52:04;;;;;;;21.80;5.20;;;3.20;97.60;;;;;;5068265;28;20025;-71
2022/01/10 00:54:29;;;;;;;13.98;4.80;;;3.10;97.60;;;;;;5059251;28;20021;-71
2022/01/10 00:56:55;;;;;;;20.42;5.00;;;3.10;97.60;;;;;;5062343;28;20110;-71
2022/01/10 00:59:20;;;;;;;15.73;5.13;;;3.10;97.60;;;;;;5066824;28;20037;-71
2022/01/10 01:01:46;;;;;;;18.38;4.93;;;3.10;97.60;;;;;;5065646;28;20172;-71
2022/01/10 01:04:12;;;;;;;15.25;5.45;;;3.10;97.60;;;;;;5063683;28;20028;-71
2022/01/10 01:06:37;;;;;;;21.63;5.65;;;3.10;97.70;;;;;;5067843;28;20163;-71
2022/01/10 01:09:07;;;;;;;17.55;5.10;;;3.10;97.70;;;;;;5062950;28;20032;-71
2022/01/10 01:14:49;;;;;;;18.50;5.47;;;3.10;97.70;;;;;;5058120;28;20059;-71
2022/01/10 01:17:25;;;;;;;18.88;4.25;;;3.10;97.70;;;;;;5061264;28;20033;-71
2022/01/10 01:25:08;;;;;;;18.30;5.40;;;3.10;97.80;;;;;;5062683;28;20478;-71
2022/01/10 01:27:34;;;;;;;15.82;5.70;;;3.10;97.80;;;;;;5063932;28;20181;-71
2022/01/10 01:29:59;;;;;;;21.55;5.38;;;3.10;97.80;;;;;;5064911;28;20142;-71
2022/01/10 01:32:25;;;;;;;26.73;6.05;;;3.10;97.80;;;;;;5061376;28;20380;-71
2022/01/10 01:34:55;;;;;;;20.67;5.15;;;3.10;97.80;;;;;;5065933;28;20029;-71
2022/01/10 01:37:20;;;;;;;16.67;5.18;;;3.10;97.80;;;;;;5067689;28;20024;-71
2022/01/10 01:39:46;;;;;;;24.45;5.13;;;3.10;97.80;;;;;;5068582;28;20044;-71
2022/01/10 01:42:44;;;;;;;16.08;5.00;;;3.10;97.80;;;;;;5058086;28;20127;-70
2022/01/10 01:45:06;;;;;;;15.32;4.90;;;3.10;97.80;;;;;;5051641;28;20044;-71
2022/01/10 01:47:31;;;;;;;15.45;4.75;;;3.10;97.80;;;;;;5068220;28;20371;-71
2022/01/10 01:49:59;;;;;;;18.95;5.25;;;3.20;97.90;;;;;;5071692;28;20283;-71
2022/01/10 01:52:26;;;;;;;28.80;5.78;;;3.20;97.90;;;;;;5068573;28;20103;-71
2022/01/10 01:54:52;;;;;;;19.80;5.20;;;3.10;97.80;;;;;;5062478;28;20351;-71
2022/01/10 01:57:19;;;;;;;20.92;5.68;;;3.10;97.80;;;;;;5070800;28;20021;-70
2022/01/10 01:59:44;;;;;;;26.75;6.00;;;3.10;97.80;;;;;;5062141;28;20031;-71
2022/01/10 02:02:10;;;;;;;21.02;5.47;;;3.10;97.80;;;;;;5063553;28;20403;-71
2022/01/10 02:04:36;;;;;;;18.27;5.50;;;3.00;97.80;;;;;;5069155;28;20024;-70
2022/01/10 02:07:02;;;;;;;24.58;5.07;;;3.00;97.80;;;;;;5071823;28;20382;-71
2022/01/10 02:09:27;;;;;;;27.15;5.90;;;2.90;97.80;;;;;;5058610;28;20093;-71
2022/01/10 02:11:53;;;;;;;25.95;5.90;;;2.90;97.90;;;;;;5060792;28;20375;-71
2022/01/10 02:14:19;;;;;;;23.17;5.40;;;2.80;97.90;;;;;;5065436;28;20452;-71
2022/01/10 02:16:52;;;;;;;22.42;5.78;;;2.80;97.90;;;;;;5070405;28;20074;-71
2022/01/10 02:19:18;;;;;;;20.65;5.50;;;2.80;97.90;;;;;;5069661;28;20456;-71
2022/01/10 02:21:43;;;;;;;30.50;6.70;;;2.80;98.00;;;;;;5069238;28;20075;-71
2022/01/10 02:24:09;;;;;;;17.75;5.93;;;2.80;98.00;;;;;;5065468;28;20128;-71
2022/01/10 02:26:37;;;;;;;23.75;6.55;;;2.80;97.90;;;;;;5070177;28;20367;-71
2022/01/10 02:29:04;;;;;;;22.73;5.30;;;2.80;98.00;;;;;;5064298;28;20431;-71
2022/01/10 02:31:29;;;;;;;22.38;5.88;;;2.70;98.00;;;;;;5059400;28;20460;-71
2022/01/10 02:33:57;;;;;;;26.95;6.28;;;2.70;98.00;;;;;;5053921;28;20025;-70
2022/01/10 02:36:26;;;;;;;19.23;6.18;;;2.70;98.00;;;;;;5061861;28;20032;-71
2022/01/10 02:38:57;;;;;;;27.83;7.00;;;2.70;98.00;;;;;;5071541;28;20024;-71
2022/01/10 02:41:28;;;;;;;24.92;6.70;;;2.60;98.00;;;;;;5063331;28;20157;-71
2022/01/10 02:43:56;;;;;;;29.58;6.90;;;2.60;98.00;;;;;;5068927;28;20085;-70
2022/01/10 02:46:23;;;;;;;26.73;6.22;;;2.60;98.00;;;;;;5066405;28;20017;-71
2022/01/10 02:48:49;;;;;;;19.40;6.88;;;2.60;98.10;;;;;;5070724;28;20020;-71
2022/01/10 02:51:15;;;;;;;16.85;6.82;;;2.50;98.10;;;;;;5070067;28;20028;-71
2022/01/10 02:53:40;;;;;;;30.88;7.00;;;2.60;98.10;;;;;;5064573;28;20036;-71
2022/01/10 02:56:06;;;;;;;20.42;6.78;;;2.60;98.10;;;;;;5069529;28;20051;-72
2022/01/10 02:58:32;;;;;;;31.27;6.82;;;2.60;98.10;;;;;;5070041;28;20157;-71
2022/01/10 03:00:57;;;;;;;29.17;7.60;;;2.60;98.10;;;;;;5063196;28;20487;-71
2022/01/10 03:03:26;;;;;;;28.45;7.13;;;2.50;98.10;;;;;;5071757;28;20033;-71
2022/01/10 03:05:52;;;;;;;26.45;7.15;;;2.50;98.10;;;;;;5068309;28;20024;-71
2022/01/10 03:08:17;;;;;;;20.35;7.38;;;2.50;98.10;;;;;;5070968;28;20372;-71
2022/01/10 03:10:43;;;;;;;22.67;7.25;;;2.40;98.10;;;;;;5069220;28;20143;-71
2022/01/10 03:13:08;;;;;;;33.30;7.70;;;2.40;98.20;;;;;;5068417;28;20467;-71
2022/01/10 03:15:34;;;;;;;28.92;7.45;;;2.40;98.20;;;;;;5059936;28;20404;-71
2022/01/10 03:17:59;;;;;;;30.40;7.50;;;2.40;98.20;;;;;;5060533;28;20029;-71
2022/01/10 03:20:25;;;;;;;31.73;7.40;;;2.40;98.20;;;;;;5066928;28;20028;-72
2022/01/10 03:22:52;;;;;;;30.00;8.40;;;2.30;98.20;;;;;;5068246;28;20040;-71
2022/01/10 03:25:18;;;;;;;31.58;7.70;;;2.30;98.20;;;;;;5065090;28;20036;-71
2022/01/10 03:27:43;;;;;;;30.10;8.27;;;2.30;98.20;;;;;;5058184;28;20029;-71
2022/01/10 03:30:10;;;;;;;26.70;7.97;;;2.30;98.20;;;;;;5065802;28;20017;-71
2022/01/10 03:32:37;;;;;;;25.95;7.78;;;2.30;98.30;;;;;;5065967;28;20024;-71
2022/01/10 03:35:03;;;;;;;21.48;7.53;;;2.30;98.20;;;;;;5063810;28;20093;-71
2022/01/10 03:37:29;;;;;;;38.78;8.57;;;2.30;98.20;;;;;;5069334;28;20384;-71
2022/01/10 03:39:54;;;;;;;34.92;8.15;;;2.20;98.20;;;;;;5066970;28;20035;-71
2022/01/10 03:42:20;;;;;;;32.97;8.65;;;2.20;98.20;;;;;;5068870;28;20036;-71
2022/01/10 03:44:45;;;;;;;30.15;7.95;;;2.20;98.20;;;;;;5068266;28;20161;-71
2022/01/10 03:47:11;;;;;;;26.50;7.80;;;2.20;98.20;;;;;;5070370;28;20547;-71
2022/01/10 03:49:37;;;;;;;29.67;8.88;;;2.10;98.30;;;;;;5067410;28;20043;-71
2022/01/10 03:52:04;;;;;;;31.83;8.60;;;2.20;98.30;;;;;;5069431;28;20035;-71
2022/01/10 03:54:29;;;;;;;32.70;8.98;;;2.20;98.30;;;;;;5064382;28;20425;-71
2022/01/10 03:56:55;;;;;;;27.77;8.07;;;2.20;98.30;;;;;;5056402;28;20033;-71
2022/01/10 03:59:20;;;;;;;28.90;8.30;;;2.20;98.30;;;;;;5055580;28;20033;-71
2022/01/10 04:01:46;;;;;;;42.28;8.43;;;2.20;98.30;;;;;;5057173;28;20090;-71
2022/01/10 04:04:12;;;;;;;26.80;7.72;;;2.10;98.30;;;;;;5055267;28;20021;-71
2022/01/10 04:06:37;;;;;;;33.00;8.65;;;2.10;98.20;;;;;;5056361;28;20036;-71
2022/01/10 04:09:04;;;;;;;35.40;8.60;;;2.10;98.30;;;;;;5069990;28;20028;-71
2022/01/10 04:11:30;;;;;;;46.28;9.18;;;2.10;98.30;;;;;;5067808;28;20435;-71
2022/01/10 04:13:55;;;;;;;29.15;8.43;;;2.00;98.20;;;;;;5059561;28;20061;-71
2022/01/10 04:16:21;;;;;;;29.08;8.23;;;2.00;98.30;;;;;;5065680;28;20119;-71
2022/01/10 04:18:46;;;;;;;37.28;8.60;;;2.00;98.30;;;;;;5069968;28;20090;-71
2022/01/10 04:21:12;;;;;;;26.13;8.13;;;1.90;98.30;;;;;;5062108;28;20131;-71
2022/01/10 04:23:37;;;;;;;26.60;8.25;;;1.90;98.30;;;;;;5068235;28;20040;-71
2022/01/10 04:26:03;;;;;;;27.30;8.13;;;1.90;98.30;;;;;;5066635;28;20474;-71
2022/01/10 04:28:29;;;;;;;39.25;8.90;;;1.90;98.40;;;;;;5068484;28;20039;-71
2022/01/10 04:30:55;;;;;;;32.40;9.18;;;2.00;98.40;;;;;;5066531;28;20032;-71
2022/01/10 04:33:21;;;;;;;28.95;8.68;;;2.10;98.50;;;;;;5070282;28;20036;-71
2022/01/10 04:35:48;;;;;;;35.58;8.80;;;2.20;98.50;;;;;;5061782;28;20032;-71
2022/01/10 04:38:15;;;;;;;31.13;9.45;;;2.20;98.50;;;;;;5062368;28;20025;-71
2022/01/10 04:40:40;;;;;;;34.22;9.15;;;2.20;98.50;;;;;;5054500;28;20033;-71
2022/01/10 04:43:06;;;;;;;29.20;10.30;;;2.20;98.50;;;;;;5062764;28;20031;-71
2022/01/10 04:45:32;;;;;;;40.13;11.05;;;2.30;98.50;;;;;;5064705;28;20062;-71
2022/01/10 04:47:57;;;;;;;34.35;10.63;;;2.30;98.40;;;;;;5069132;28;20027;-71
2022/01/10 04:52:50;;;;;;;42.03;11.75;;;2.30;98.40;;;;;;5068827;28;20037;-71
2022/01/10 04:55:16;;;;;;;38.42;11.57;;;2.20;98.40;;;;;;5062562;28;22137;-71
2022/01/10 04:57:42;;;;;;;51.90;11.18;;;2.10;98.30;;;;;;5053734;28;20439;-71
2022/01/10 05:00:10;;;;;;;36.20;9.90;;;2.00;98.30;;;;;;5067284;28;20120;-71
2022/01/10 05:02:36;;;;;;;37.45;10.18;;;2.00;98.30;;;;;;5054583;28;20037;-71
2022/01/10 05:05:02;;;;;;;35.50;10.23;;;1.90;98.40;;;;;;5060474;28;20311;-71
2022/01/10 05:07:27;;;;;;;39.10;9.27;;;1.90;98.40;;;;;;5068218;28;20033;-71
2022/01/10 05:09:53;;;;;;;34.75;10.32;;;1.80;98.40;;;;;;5063327;28;20082;-70
2022/01/10 05:12:20;;;;;;;41.65;9.77;;;1.90;98.50;;;;;;5058150;28;20444;-71
2022/01/10 05:14:46;;;;;;;34.90;10.00;;;2.00;98.60;;;;;;5060180;28;20029;-71
2022/01/10 05:17:11;;;;;;;33.90;10.02;;;2.00;98.60;;;;;;5066099;28;20368;-71
2022/01/10 05:19:37;;;;;;;38.92;10.50;;;2.10;98.60;;;;;;5063882;28;20048;-67
2022/01/10 05:22:03;;;;;;;38.35;10.25;;;2.10;98.60;;;;;;5067975;28;20113;-67
2022/01/10 05:24:28;;;;;;;34.80;9.63;;;2.10;98.50;;;;;;5061486;28;20037;-67
2022/01/10 05:26:54;;;;;;;39.00;11.77;;;2.10;98.50;;;;;;5065800;28;20039;-67
2022/01/10 05:29:20;;;;;;;35.88;10.18;;;2.10;98.50;;;;;;5072106;28;20371;-67
2022/01/10 05:31:45;;;;;;;32.80;10.07;;;2.20;98.50;;;;;;5070801;28;20452;-66
2022/01/10 05:34:11;;;;;;;43.30;11.05;;;2.20;98.50;;;;;;5072077;28;20029;-66
2022/01/10 05:36:36;;;;;;;32.03;10.43;;;2.10;98.50;;;;;;5062518;28;20033;-66
2022/01/10 05:39:02;;;;;;;32.75;10.30;;;2.10;98.50;;;;;;5073198;28;20066;-66
2022/01/10 05:41:28;;;;;;;41.58;9.75;;;2.10;98.50;;;;;;5070185;28;20418;-66
2022/01/10 05:43:55;;;;;;;45.33;10.23;;;2.10;98.50;;;;;;5066586;28;20078;-66
2022/01/10 05:46:22;;;;;;;26.45;9.98;;;2.10;98.50;;;;;;5071401;28;20025;-66
2022/01/10 05:48:52;;;;;;;46.22;10.10;;;2.20;98.50;;;;;;5072633;28;20031;-66
2022/01/10 05:51:18;;;;;;;46.17;10.20;;;2.10;98.50;;;;;;5069287;28;20093;-66
2022/01/10 05:53:43;;;;;;;39.47;9.90;;;2.10;98.50;;;;;;5073292;28;20482;-66
2022/01/10 05:56:09;;;;;;;35.45;10.18;;;2.10;98.50;;;;;;5068911;28;20021;-66
2022/01/10 05:58:34;;;;;;;30.50;9.55;;;2.10;98.50;;;;;;5068967;28;20029;-66
2022/01/10 06:01:00;;;;;;;41.70;10.25;;;2.10;98.50;;;;;;5068943;28;20067;-66
2022/01/10 06:03:25;;;;;;;43.97;10.38;;;2.20;98.60;;;;;;5066438;28;20104;-66
2022/01/10 06:05:51;;;;;;;40.90;10.60;;;2.20;98.60;;;;;;5064108;28;20024;-66
2022/01/10 06:08:17;;;;;;;37.00;11.07;;;2.30;98.60;;;;;;5069334;28;20021;-66
2022/01/10 06:10:43;;;;;;;39.58;11.18;;;2.30;98.60;;;;;;5067133;28;20039;-67
2022/01/10 06:13:09;;;;;;;37.22;10.80;;;2.30;98.60;;;;;;5071631;28;20439;-66
2022/01/10 06:15:35;;;;;;;46.10;10.60;;;2.30;98.60;;;;;;5070677;28;20055;-66
2022/01/10 06:18:00;;;;;;;43.53;10.85;;;2.30;98.50;;;;;;5069279;28;20048;-66
2022/01/10 06:20:26;;;;;;;33.15;10.20;;;2.30;98.60;;;;;;5064204;28;20028;-66
2022/01/10 06:22:52;;;;;;;41.75;10.95;;;2.20;98.50;;;;;;5066438;28;20033;-66
2022/01/10 06:25:20;;;;;;;41.15;10.77;;;2.20;98.50;;;;;;5066374;28;20021;-66
2022/01/10 06:27:46;;;;;;;42.53;11.00;;;2.10;98.50;;;;;;5067487;28;20474;-66
2022/01/10 06:30:12;;;;;;;54.70;10.65;;;2.10;98.60;;;;;;5063700;28;20056;-66
2022/01/10 06:32:37;;;;;;;36.78;10.52;;;2.10;98.50;;;;;;5070072;28;20153;-66
2022/01/10 06:35:04;;;;;;;45.33;10.90;;;2.10;98.60;;;;;;5068966;28;20099;-66
2022/01/10 06:37:29;;;;;;;40.90;10.60;;;2.20;98.60;;;;;;5065404;28;20447;-66
2022/01/10 06:39:55;;;;;;;33.53;10.38;;;2.20;98.60;;;;;;5070088;28;20026;-66
2022/01/10 06:42:20;;;;;;;38.88;11.23;;;2.20;98.60;;;;;;5066553;28;20047;-66
2022/01/10 06:44:46;;;;;;;33.35;11.73;;;2.30;98.60;;;;;;5068454;28;20056;-66
2022/01/10 06:47:12;;;;;;;41.60;11.85;;;2.30;98.70;;;;;;5068927;28;20021;-66
2022/01/10 06:49:38;;;;;;;41.65;11.60;;;2.30;98.70;;;;;;5063822;28;20025;-66
2022/01/10 06:52:04;;;;;;;27.75;12.27;;;2.40;98.70;;;;;;5064924;28;20029;-66
2022/01/10 06:54:30;;;;;;;42.75;12.63;;;2.40;98.70;;;;;;5065090;28;20486;-66
2022/01/10 06:56:58;;;;;;;47.20;11.73;;;2.40;98.70;;;;;;5057823;28;20154;-66
2022/01/10 06:59:25;;;;;;;45.80;11.82;;;2.40;98.70;;;;;;5064057;28;20031;-66
2022/01/10 07:01:52;;;;;;;31.35;10.75;;;2.40;98.60;;;;;;5066371;28;20506;-66
2022/01/10 07:04:17;;;;;;;27.25;11.40;;;2.40;98.60;;;;;;5063560;28;20044;-66
2022/01/10 07:06:42;;;;;;;37.55;11.02;;;2.50;98.60;;;;;;5064490;28;20391;-66
2022/01/10 07:09:08;;;;;;;37.60;11.25;;;2.50;98.60;;;;;;5060355;28;20029;-66
2022/01/10 07:11:34;;;;;;;48.40;11.68;;;2.40;98.60;;;;;;5065642;28;20025;-66
2022/01/10 07:13:59;;;;;;;37.35;10.88;;;2.50;98.70;;;;;;5060854;28;20034;-66
2022/01/10 07:16:25;;;;;;;41.45;11.45;;;2.50;98.60;;;;;;5065772;28;20025;-66
2022/01/10 07:18:50;;;;;;;33.85;10.68;;;2.50;98.60;;;;;;5061779;28;20077;-66
2022/01/10 07:21:16;;;;;;;35.75;11.73;;;2.50;98.60;;;;;;5060503;28;20107;-66
2022/01/10 07:23:42;;;;;;;37.33;11.00;;;2.60;98.60;;;;;;5061484;28;20025;-66
2022/01/10 07:26:07;;;;;;;34.13;10.75;;;2.60;98.70;;;;;;5058950;28;20384;-66
2022/01/10 07:28:33;;;;;;;33.20;11.27;;;2.60;98.70;;;;;;5057411;28;20090;-66
2022/01/10 07:30:58;;;;;;;44.58;12.07;;;2.60;98.70;;;;;;5059241;28;20431;-66
2022/01/10 07:33:24;;;;;;;42.08;12.85;;;2.70;98.70;;;;;;5062464;28;20138;-66
2022/01/10 07:35:49;;;;;;;38.90;11.35;;;2.70;98.70;;;;;;5055555;28;20345;-66
2022/01/10 07:38:15;;;;;;;62.70;13.80;;;2.80;98.70;;;;;;5062421;28;20024;-66
2022/01/10 07:40:41;;;;;;;48.15;13.20;;;2.80;98.70;;;;;;5061341;28;20024;-66
2022/01/10 07:43:06;;;;;;;40.15;12.60;;;2.80;98.70;;;;;;5062945;28;20322;-66
2022/01/10 07:45:32;;;;;;;36.55;12.45;;;2.80;98.70;;;;;;5055248;28;20440;-66
2022/01/10 07:47:58;;;;;;;47.97;12.88;;;2.90;98.70;;;;;;5055774;28;20451;-67
2022/01/10 07:50:23;;;;;;;39.88;12.20;;;2.80;98.70;;;;;;5058082;28;20017;-66
2022/01/10 07:52:49;;;;;;;40.72;12.98;;;2.90;98.70;;;;;;5057629;28;20036;-67
2022/01/10 07:55:14;;;;;;;34.03;11.60;;;2.90;98.70;;;;;;5056202;28;20108;-67
2022/01/10 07:57:40;;;;;;;43.70;12.60;;;2.90;98.70;;;;;;5059616;28;20035;-67
2022/01/10 08:00:06;;;;;;;39.85;12.23;;;2.90;98.60;;;;;;5060554;28;20095;-67
2022/01/10 08:02:32;;;;;;;39.28;13.13;;;3.00;98.70;;;;;;5056561;28;20049;-67
2022/01/10 08:04:57;;;;;;;39.50;12.18;;;2.90;98.60;;;;;;5056905;28;20375;-67
2022/01/10 08:07:23;;;;;;;29.55;10.90;;;2.90;98.60;;;;;;5057236;28;20056;-67
2022/01/10 08:09:49;;;;;;;37.17;11.70;;;3.00;98.60;;;;;;5059091;28;20051;-67
2022/01/10 08:12:14;;;;;;;35.28;12.10;;;3.00;98.60;;;;;;5056785;28;20032;-67
2022/01/10 08:14:40;;;;;;;51.42;12.32;;;3.00;98.60;;;;;;5059943;28;20029;-67
2022/01/10 08:17:06;;;;;;;36.60;12.07;;;3.00;98.60;;;;;;5059659;28;20032;-66
2022/01/10 08:19:33;;;;;;;27.38;11.50;;;3.00;98.60;;;;;;5056835;28;20033;-67
2022/01/10 08:22:00;;;;;;;34.25;12.75;;;3.00;98.60;;;;;;5060291;28;20064;-67
2022/01/10 08:24:26;;;;;;;46.83;13.15;;;3.00;98.60;;;;;;5065338;28;20467;-66
2022/01/10 08:26:53;;;;;;;41.85;12.82;;;3.00;98.60;;;;;;5064600;28;20027;-67
2022/01/10 08:29:18;;;;;;;48.40;13.07;;;3.00;98.60;;;;;;5052118;28;20106;-67
2022/01/10 08:31:45;;;;;;;38.30;12.13;;;3.10;98.60;;;;;;5053294;28;20047;-67
2022/01/10 08:34:11;;;;;;;42.78;13.52;;;3.10;98.60;;;;;;5054481;28;20527;-67
2022/01/10 08:36:36;;;;;;;41.53;13.25;;;3.10;98.60;;;;;;5064304;28;20073;-67
2022/01/10 08:39:04;;;;;;;37.67;12.07;;;3.10;98.60;;;;;;5066751;28;20458;-67
2022/01/10 08:41:29;;;;;;;42.63;12.68;;;3.10;98.60;;;;;;5067398;28;20044;-67
2022/01/10 08:43:58;;;;;;;39.03;12.68;;;3.10;98.60;;;;;;5058302;28;20028;-67
2022/01/10 08:46:24;;;;;;;38.75;12.82;;;3.20;98.60;;;;;;5065534;28;20406;-67
2022/01/10 08:48:50;;;;;;;28.90;12.63;;;3.20;98.50;;;;;;5064500;28;20021;-67
2022/01/10 08:51:16;;;;;;;40.05;13.50;;;3.20;98.50;;;;;;5068352;28;20363;-67
2022/01/10 08:53:42;;;;;;;47.33;13.25;;;3.20;98.50;;;;;;5063048;28;20109;-67
2022/01/10 08:56:07;;;;;;;36.47;12.60;;;3.20;98.60;;;;;;5067543;28;20062;-67
2022/01/10 08:58:33;;;;;;;46.97;13.30;;;3.30;98.60;;;;;;5065306;28;20784;-67
2022/01/10 09:01:03;;;;;;;55.47;12.30;;;3.30;98.50;;;;;;5059658;28;20052;-67
2022/01/10 09:03:29;;;;;;;34.78;12.93;;;3.30;98.50;;;;;;5062027;28;20498;-67
2022/01/10 09:05:55;;;;;;;41.45;12.18;;;3.20;98.50;;;;;;5067425;28;20078;-67
2022/01/10 09:08:23;;;;;;;38.38;12.77;;;3.30;98.50;;;;;;5060541;28;20033;-67
2022/01/10 09:10:49;;;;;;;41.97;12.20;;;3.30;98.50;;;;;;5067382;28;20047;-67
2022/01/10 09:13:14;;;;;;;41.00;13.05;;;3.30;98.50;;;;;;5062731;28;20037;-67
2022/01/10 09:15:40;;;;;;;35.95;12.93;;;3.30;98.50;;;;;;5059986;28;20429;-67
2022/01/10 09:18:05;;;;;;;33.38;12.82;;;3.40;98.50;;;;;;5058622;28;20453;-67
2022/01/10 09:20:31;;;;;;;41.42;13.35;;;3.40;98.50;;;;;;5063995;28;20029;-67
2022/01/10 09:22:56;;;;;;;39.28;12.73;;;3.40;98.50;;;;;;5059573;28;20032;-67
2022/01/10 09:25:22;;;;;;;39.22;13.00;;;3.50;98.40;;;;;;5065272;28;20025;-67
2022/01/10 09:27:48;;;;;;;42.92;13.15;;;3.50;98.40;;;;;;5055821;28;20453;-67
2022/01/10 09:30:14;;;;;;;39.88;12.70;;;3.50;98.40;;;;;;5052009;28;20478;-67
2022/01/10 09:32:41;;;;;;;41.25;13.93;;;3.50;98.40;;;;;;5064604;28;20053;-67
2022/01/10 09:35:08;;;;;;;37.80;13.35;;;3.60;98.40;;;;;;5066353;28;20021;-67
2022/01/10 09:37:34;;;;;;;47.42;13.10;;;3.50;98.30;;;;;;5059567;28;20021;-67
2022/01/10 09:39:59;;;;;;;42.95;12.95;;;3.60;98.30;;;;;;5051171;28;20036;-67
2022/01/10 09:42:26;;;;;;;50.75;13.43;;;3.60;98.30;;;;;;5060583;28;20032;-67
2022/01/10 09:44:53;;;;;;;35.28;13.48;;;3.60;98.30;;;;;;5056927;28;20097;-67
2022/01/10 09:47:19;;;;;;;56.05;14.70;;;3.50;98.20;;;;;;5062351;28;20020;-67
2022/01/10 09:49:44;;;;;;;42.92;13.35;;;3.60;98.30;;;;;;5054806;28;20440;-67
2022/01/10 09:52:10;;;;;;;40.60;13.23;;;3.60;98.30;;;;;;5051910;28;20040;-67
2022/01/10 09:54:36;;;;;;;43.17;13.77;;;3.60;98.30;;;;;;5054098;28;20462;-67
2022/01/10 09:57:02;;;;;;;39.45;13.00;;;3.60;98.20;;;;;;5061353;28;20063;-67
2022/01/10 09:59:29;;;;;;;35.65;13.63;;;3.60;98.20;;;;;;5053550;28;20029;-67
2022/01/10 10:01:54;;;;;;;41.75;13.65;;;3.70;98.30;;;;;;5062962;28;20456;-67
2022/01/10 10:04:20;;;;;;;38.00;13.68;;;3.60;98.20;;;;;;5054003;28;20113;-67
2022/01/10 10:06:47;;;;;;;45.25;14.40;;;3.70;98.20;;;;;;5056763;28;20032;-67
2022/01/10 10:09:12;;;;;;;32.53;13.18;;;3.70;98.30;;;;;;5059524;28;20134;-67
2022/01/10 10:11:42;;;;;;;38.92;14.07;;;3.80;98.30;;;;;;5054765;28;20099;-67
2022/01/10 10:14:09;;;;;;;44.60;13.02;;;3.80;98.20;;;;;;5059311;28;20494;-67
2022/01/10 10:16:36;;;;;;;40.40;13.63;;;3.80;98.20;;;;;;5065267;28;20021;-67
2022/01/10 10:19:03;;;;;;;43.60;14.07;;;3.80;98.10;;;;;;5056796;28;20017;-67
2022/01/10 10:21:31;;;;;;;44.05;13.45;;;3.70;98.10;;;;;;5063116;28;20035;-67
2022/01/10 10:23:56;;;;;;;41.72;14.20;;;3.80;98.20;;;;;;5064700;28;20036;-67
2022/01/10 10:26:25;;;;;;;45.63;14.10;;;3.70;98.10;;;;;;5052606;28;20372;-67
2022/01/10 10:28:53;;;;;;;48.67;15.27;;;3.80;98.20;;;;;;5060114;28;20468;-67
2022/01/10 10:31:33;;;;;;;41.28;15.35;;;3.70;98.10;;;;;;5067527;28;20368;-67
2022/01/10 10:34:02;;;;;;;50.92;15.55;;;3.70;98.10;;;;;;5063293;28;20055;-67
2022/01/10 10:36:31;;;;;;;43.97;14.95;;;3.70;98.20;;;;;;5066329;28;20024;-67
2022/01/10 10:38:57;;;;;;;40.90;15.52;;;3.80;98.20;;;;;;5064253;28;20099;-67
2022/01/10 10:41:23;;;;;;;58.58;17.80;;;3.80;98.20;;;;;;5068070;28;20448;-67
2022/01/10 10:43:54;;;;;;;45.17;17.83;;;3.80;98.10;;;;;;5065228;28;20021;-67
2022/01/10 10:46:24;;;;;;;41.27;15.83;;;3.80;98.10;;;;;;5064352;28;20423;-67
2022/01/10 10:48:52;;;;;;;46.28;17.08;;;3.90;98.20;;;;;;5068664;28;20266;-67
2022/01/10 10:51:18;;;;;;;43.22;16.98;;;3.90;98.10;;;;;;5057480;28;20029;-67
2022/01/10 10:53:43;;;;;;;52.17;17.20;;;4.00;98.10;;;;;;5058122;28;20078;-67
2022/01/10 10:56:09;;;;;;;45.58;15.95;;;4.00;98.10;;;;;;5067309;28;20020;-67
2022/01/10 10:58:35;;;;;;;37.45;15.65;;;4.10;98.00;;;;;;5062207;28;20100;-67
2022/01/10 11:01:02;;;;;;;39.75;16.48;;;4.10;98.00;;;;;;5059595;28;20434;-67
2022/01/10 11:03:28;;;;;;;37.42;14.65;;;4.10;98.00;;;;;;5053994;28;20099;-67
2022/01/10 11:05:57;;;;;;;36.45;15.75;;;4.10;98.00;;;;;;5057937;28;20052;-67
2022/01/10 11:08:25;;;;;;;38.22;15.02;;;4.10;98.00;;;;;;5064134;28;20078;-67
2022/01/10 11:10:51;;;;;;;36.80;15.45;;;4.20;98.00;;;;;;5057752;28;20028;-67
2022/01/10 11:13:20;;;;;;;40.28;14.30;;;4.10;97.90;;;;;;5064969;28;20029;-67
2022/01/10 11:15:45;;;;;;;31.85;15.02;;;4.20;97.90;;;;;;5058224;28;20077;-67
2022/01/10 11:18:11;;;;;;;37.28;14.52;;;4.20;97.90;;;;;;5064071;28;20135;-67
2022/01/10 11:20:42;;;;;;;38.67;14.65;;;4.20;97.90;;;;;;5064367;28;20036;-67
2022/01/10 11:23:09;;;;;;;37.38;15.00;;;4.10;97.80;;;;;;5061005;28;20119;-67
2022/01/10 11:25:39;;;;;;;42.15;15.18;;;4.10;97.90;;;;;;5061119;28;20028;-67
2022/01/10 11:28:07;;;;;;;42.75;15.52;;;4.20;97.90;;;;;;5061736;28;20033;-67
2022/01/10 11:30:34;;;;;;;34.80;15.45;;;4.20;97.90;;;;;;5066082;28;20073;-67
2022/01/10 11:33:16;;;;;;;36.50;15.23;;;4.20;97.90;;;;;;5064324;28;20028;-67
2022/01/10 11:35:57;;;;;;;39.63;15.70;;;4.30;97.90;;;;;;5066071;28;20064;-67
2022/01/10 11:38:28;;;;;;;;;;;4.20;97.80;;;;;;5063210;28;20402;-67
2022/01/10 11:41:09;;;;;;;32.42;14.77;;;4.30;97.80;;;;;;5051656;28;19911;-69
2022/01/10 11:43:40;;;;;;;;;;;4.20;97.80;;;;;;5067211;28;20138;-67
2022/01/10 11:46:29;;;;;;;40.28;15.00;;;4.20;97.80;;;;;;5065986;28;19908;-67
2022/01/10 11:48:59;;;;;;;38.83;14.95;;;4.20;97.80;;;;;;5058684;28;20056;-67
2022/01/10 11:51:26;;;;;;;37.20;14.73;;;4.30;97.80;;;;;;5054400;28;20029;-67
2022/01/10 11:53:57;;;;;;;34.17;14.07;;;4.30;97.80;;;;;;5063498;28;20344;-67
2022/01/10 11:56:31;;;;;;;33.45;13.65;;;4.50;97.80;;;;;;5059521;28;20044;-67
2022/01/10 11:59:14;;;;;;;41.33;14.45;;;4.50;97.60;;;;;;5061327;28;20039;-67
2022/01/10 12:01:47;;;;;;;36.92;15.15;;;4.50;97.50;;;;;;5062691;28;20052;-67
2022/01/10 12:04:13;;;;;;;32.80;15.82;;;4.40;97.60;;;;;;5059473;28;20182;-67
2022/01/10 12:06:39;;;;;;;31.40;14.88;;;4.40;97.60;;;;;;5061273;28;20025;-67
2022/01/10 12:09:05;;;;;;;32.13;14.95;;;4.40;97.50;;;;;;5062736;28;20043;-67
2022/01/10 12:11:32;;;;;;;31.13;13.88;;;4.50;97.60;;;;;;5064244;28;20451;-67
2022/01/10 12:14:00;;;;;;;25.50;13.45;;;4.40;97.50;;;;;;5063956;28;20467;-67
2022/01/10 12:16:27;;;;;;;36.72;14.80;;;4.40;97.50;;;;;;5059615;28;20065;-67
2022/01/10 12:18:53;;;;;;;34.08;15.05;;;4.40;97.50;;;;;;5064099;28;20028;-67
2022/01/10 12:21:19;;;;;;;27.33;13.05;;;4.30;97.40;;;;;;5054358;28;20532;-67
2022/01/10 12:23:45;;;;;;;24.48;12.82;;;4.30;97.40;;;;;;5064538;28;20044;-67
2022/01/10 12:26:12;;;;;;;34.60;14.25;;;4.30;97.50;;;;;;5068553;28;20103;-67
2022/01/10 12:28:37;;;;;;;28.55;13.88;;;4.40;97.50;;;;;;5066048;28;20020;-67
2022/01/10 12:31:06;;;;;;;31.90;13.45;;;4.30;97.30;;;;;;5060459;28;20375;-67
2022/01/10 12:33:33;;;;;;;33.22;14.60;;;4.40;97.40;;;;;;5066372;28;20029;-67
2022/01/10 12:36:05;;;;;;;30.40;13.52;;;4.40;97.40;;;;;;5069381;28;20023;-67
2022/01/10 12:38:30;;;;;;;26.52;12.82;;;4.30;97.20;;;;;;5063967;28;20048;-67
2022/01/10 12:40:56;;;;;;;30.83;14.15;;;4.30;97.20;;;;;;5063787;28;20021;-67
2022/01/10 12:43:21;;;;;;;26.35;12.82;;;4.30;97.20;;;;;;5059180;28;20115;-67
2022/01/10 12:45:49;;;;;;;24.50;12.65;;;4.30;97.20;;;;;;5068211;28;20384;-67
2022/01/10 12:48:14;;;;;;;26.02;12.70;;;4.30;97.10;;;;;;5063889;28;20032;-67